createdAt,value
2023-01-29T00:00:21.781Z,-1.62
2023-01-29T00:01:21.750Z,-1.62
2023-01-29T00:02:21.799Z,-1.64
2023-01-29T00:03:21.855Z,-1.64
2023-01-29T00:04:21.722Z,-1.67
2023-01-29T00:05:27.790Z,-1.65
2023-01-29T00:06:21.734Z,-1.67
2023-01-29T00:07:21.694Z,-1.70
2023-01-29T00:08:21.691Z,-1.68
2023-01-29T00:09:21.710Z,-1.67
2023-01-29T00:10:21.664Z,-1.67
2023-01-29T00:11:21.649Z,-1.64
2023-01-29T00:12:21.651Z,-1.67
2023-01-29T00:13:21.630Z,-1.67
2023-01-29T00:14:21.645Z,-1.65
2023-01-29T00:15:21.618Z,-1.65
2023-01-29T00:16:21.612Z,-1.65
2023-01-29T00:17:21.672Z,-1.64
2023-01-29T00:18:21.578Z,-1.62
2023-01-29T00:19:21.583Z,-1.65
2023-01-29T00:20:21.591Z,-1.64
2023-01-29T00:21:21.555Z,-1.65
2023-01-29T00:22:21.558Z,-1.64
2023-01-29T00:23:21.526Z,-1.62
2023-01-29T00:24:21.614Z,-1.62
2023-01-29T00:25:21.515Z,-1.61
2023-01-29T00:26:21.509Z,-1.61
2023-01-29T00:27:21.499Z,-1.59
2023-01-29T00:28:21.506Z,-1.61
2023-01-29T00:29:21.505Z,-1.61
2023-01-29T00:30:21.454Z,-1.59
2023-01-29T00:31:21.594Z,-1.59
2023-01-29T00:32:21.532Z,-1.59
2023-01-29T00:33:21.426Z,-1.61
2023-01-29T00:34:21.452Z,-1.61
2023-01-29T00:35:21.422Z,-1.59
2023-01-29T00:36:21.401Z,-1.61
2023-01-29T00:37:21.401Z,-1.62
2023-01-29T00:38:21.374Z,-1.62
2023-01-29T00:39:21.447Z,-1.65
2023-01-29T00:40:21.356Z,-1.64
2023-01-29T00:41:21.358Z,-1.65
2023-01-29T00:42:21.337Z,-1.68
2023-01-29T00:43:21.351Z,-1.65
2023-01-29T00:44:21.330Z,-1.65
2023-01-29T00:45:21.310Z,-1.65
2023-01-29T00:46:21.329Z,-1.64
2023-01-29T00:47:21.303Z,-1.65
2023-01-29T00:48:21.280Z,-1.64
2023-01-29T00:49:21.280Z,-1.67
2023-01-29T00:50:21.282Z,-1.70
2023-01-29T00:51:21.254Z,-1.70
2023-01-29T00:52:21.230Z,-1.71
2023-01-29T00:53:21.231Z,-1.71
2023-01-29T00:54:21.240Z,-1.72
2023-01-29T00:55:21.232Z,-1.75
2023-01-29T00:56:21.191Z,-1.74
2023-01-29T00:57:21.194Z,-1.75
2023-01-29T00:58:21.193Z,-1.74
2023-01-29T00:59:21.179Z,-1.74
2023-01-29T01:00:21.150Z,-1.71
2023-01-29T01:01:21.154Z,-1.71
2023-01-29T01:02:21.203Z,-1.72
2023-01-29T01:03:21.134Z,-1.75
2023-01-29T01:04:21.131Z,-1.72
2023-01-29T01:05:21.113Z,-1.74
2023-01-29T01:06:21.100Z,-1.72
2023-01-29T01:07:21.111Z,-1.74
2023-01-29T01:08:21.073Z,-1.74
2023-01-29T01:09:21.085Z,-1.74
2023-01-29T01:10:21.048Z,-1.72
2023-01-29T01:11:21.045Z,-1.72
2023-01-29T01:12:21.036Z,-1.71
2023-01-29T01:13:21.027Z,-1.72
2023-01-29T01:14:21.028Z,-1.70
2023-01-29T01:15:21.010Z,-1.67
2023-01-29T01:16:21.156Z,-1.67
2023-01-29T01:17:20.976Z,-1.68
2023-01-29T01:18:20.968Z,-1.67
2023-01-29T01:19:20.989Z,-1.70
2023-01-29T01:20:20.972Z,-1.71
2023-01-29T01:21:20.942Z,-1.70
2023-01-29T01:22:20.925Z,-1.72
2023-01-29T01:23:20.935Z,-1.72
2023-01-29T01:24:21.011Z,-1.74
2023-01-29T01:25:20.906Z,-1.74
2023-01-29T01:26:20.892Z,-1.71
2023-01-29T01:27:20.879Z,-1.71
2023-01-29T01:28:20.865Z,-1.71
2023-01-29T01:29:20.881Z,-1.72
2023-01-29T01:30:20.861Z,-1.71
2023-01-29T01:31:20.921Z,-1.70
2023-01-29T01:32:20.827Z,-1.68
2023-01-29T01:33:20.827Z,-1.68
2023-01-29T01:34:20.816Z,-1.70
2023-01-29T01:35:20.804Z,-1.68
2023-01-29T01:36:20.789Z,-1.67
2023-01-29T01:37:20.776Z,-1.67
2023-01-29T01:38:20.782Z,-1.65
2023-01-29T01:39:20.779Z,-1.65
2023-01-29T01:40:20.760Z,-1.67
2023-01-29T01:41:20.740Z,-1.64
2023-01-29T01:42:20.719Z,-1.64
2023-01-29T01:43:20.712Z,-1.64
2023-01-29T01:44:20.720Z,-1.62
2023-01-29T01:45:20.696Z,-1.62
2023-01-29T01:46:20.686Z,-1.62
2023-01-29T01:47:20.681Z,-1.62
2023-01-29T01:48:20.682Z,-1.61
2023-01-29T01:49:20.673Z,-1.59
2023-01-29T01:50:20.659Z,-1.61
2023-01-29T01:51:20.636Z,-1.62
2023-01-29T01:52:20.647Z,-1.61
2023-01-29T01:53:20.628Z,-1.59
2023-01-29T01:54:20.628Z,-1.61
2023-01-29T01:55:20.612Z,-1.59
2023-01-29T01:56:20.603Z,-1.61
2023-01-29T01:57:20.594Z,-1.61
2023-01-29T01:58:20.559Z,-1.61
2023-01-29T01:59:20.571Z,-1.64
2023-01-29T02:00:20.549Z,-1.64
2023-01-29T02:01:20.581Z,-1.65
2023-01-29T02:02:20.555Z,-1.65
2023-01-29T02:03:20.531Z,-1.68
2023-01-29T02:04:20.508Z,-1.68
2023-01-29T02:05:20.489Z,-1.70
2023-01-29T02:06:20.487Z,-1.70
2023-01-29T02:07:20.470Z,-1.70
2023-01-29T02:08:20.454Z,-1.71
2023-01-29T02:09:20.479Z,-1.70
2023-01-29T02:10:20.439Z,-1.72
2023-01-29T02:11:20.428Z,-1.72
2023-01-29T02:12:20.421Z,-1.74
2023-01-29T02:13:20.424Z,-1.74
2023-01-29T02:14:20.412Z,-1.74
2023-01-29T02:15:20.383Z,-1.71
2023-01-29T02:16:20.379Z,-1.74
2023-01-29T02:17:20.516Z,-1.74
2023-01-29T02:18:20.351Z,-1.75
2023-01-29T02:19:20.361Z,-1.75
2023-01-29T02:20:20.338Z,-1.77
2023-01-29T02:21:20.328Z,-1.75
2023-01-29T02:22:20.322Z,-1.75
2023-01-29T02:23:20.308Z,-1.74
2023-01-29T02:24:20.386Z,-1.75
2023-01-29T02:25:20.287Z,-1.80
2023-01-29T02:26:20.279Z,-1.82
2023-01-29T02:27:20.275Z,-1.82
2023-01-29T02:28:20.249Z,-1.83
2023-01-29T02:29:20.268Z,-1.83
2023-01-29T02:30:20.227Z,-1.82
2023-01-29T02:31:20.394Z,-1.82
2023-01-29T02:32:20.208Z,-1.80
2023-01-29T02:33:20.214Z,-1.82
2023-01-29T02:34:20.208Z,-1.82
2023-01-29T02:35:20.191Z,-1.83
2023-01-29T02:36:20.170Z,-1.82
2023-01-29T02:37:20.159Z,-1.83
2023-01-29T02:38:20.179Z,-1.85
2023-01-29T02:39:20.172Z,-1.88
2023-01-29T02:40:20.134Z,-1.88
2023-01-29T02:41:20.131Z,-1.86
2023-01-29T02:42:20.117Z,-1.86
2023-01-29T02:43:20.111Z,-1.86
2023-01-29T02:44:20.108Z,-1.85
2023-01-29T02:45:20.100Z,-1.88
2023-01-29T02:46:20.090Z,-1.85
2023-01-29T02:47:20.113Z,-1.85
2023-01-29T02:48:20.061Z,-1.86
2023-01-29T02:49:20.064Z,-1.86
2023-01-29T02:50:20.032Z,-1.85
2023-01-29T02:51:20.035Z,-1.86
2023-01-29T02:52:20.014Z,-1.88
2023-01-29T02:53:20.004Z,-1.85
2023-01-29T02:54:20.015Z,-1.88
2023-01-29T02:55:20.005Z,-1.86
2023-01-29T02:56:19.973Z,-1.88
2023-01-29T02:57:19.979Z,-1.89
2023-01-29T02:58:19.966Z,-1.88
2023-01-29T02:59:19.964Z,-1.88
2023-01-29T03:00:19.944Z,-1.88
2023-01-29T03:01:19.988Z,-1.88
2023-01-29T03:02:19.985Z,-1.86
2023-01-29T03:03:19.905Z,-1.86
2023-01-29T03:04:19.923Z,-1.85
2023-01-29T03:05:19.888Z,-1.85
2023-01-29T03:06:19.877Z,-1.82
2023-01-29T03:07:19.870Z,-1.82
2023-01-29T03:08:19.850Z,-1.82
2023-01-29T03:09:19.861Z,-1.82
2023-01-29T03:10:19.825Z,-1.83
2023-01-29T03:11:19.837Z,-1.85
2023-01-29T03:12:20.345Z,-1.82
2023-01-29T03:13:19.821Z,-1.83
2023-01-29T03:14:19.838Z,-1.80
2023-01-29T03:15:19.781Z,-1.83
2023-01-29T03:16:19.790Z,-1.82
2023-01-29T03:17:19.761Z,-1.82
2023-01-29T03:18:19.739Z,-1.82
2023-01-29T03:19:19.747Z,-1.82
2023-01-29T03:20:19.904Z,-1.82
2023-01-29T03:21:19.733Z,-1.78
2023-01-29T03:22:19.705Z,-1.77
2023-01-29T03:23:19.719Z,-1.78
2023-01-29T03:24:19.754Z,-1.80
2023-01-29T03:25:19.698Z,-1.82
2023-01-29T03:26:19.660Z,-1.83
2023-01-29T03:27:19.656Z,-1.80
2023-01-29T03:28:19.650Z,-1.80
2023-01-29T03:29:19.650Z,-1.80
2023-01-29T03:30:19.636Z,-1.80
2023-01-29T03:31:19.812Z,-1.80
2023-01-29T03:32:19.605Z,-1.82
2023-01-29T03:33:19.609Z,-1.80
2023-01-29T03:34:19.603Z,-1.78
2023-01-29T03:35:19.602Z,-1.80
2023-01-29T03:36:19.568Z,-1.82
2023-01-29T03:37:19.575Z,-1.85
2023-01-29T03:38:19.550Z,-1.85
2023-01-29T03:39:19.534Z,-1.85
2023-01-29T03:40:19.732Z,-1.85
2023-01-29T03:41:19.560Z,-1.86
2023-01-29T03:42:19.500Z,-1.86
2023-01-29T03:43:19.510Z,-1.88
2023-01-29T03:44:19.495Z,-1.86
2023-01-29T03:45:19.487Z,-1.86
2023-01-29T03:46:19.467Z,-1.86
2023-01-29T03:47:19.461Z,-1.86
2023-01-29T03:48:19.439Z,-1.85
2023-01-29T03:49:19.452Z,-1.86
2023-01-29T03:50:19.430Z,-1.85
2023-01-29T03:51:19.412Z,-1.85
2023-01-29T03:52:19.395Z,-1.83
2023-01-29T03:53:19.406Z,-1.82
2023-01-29T03:54:19.385Z,-1.82
2023-01-29T03:55:19.404Z,-1.83
2023-01-29T03:56:19.364Z,-1.80
2023-01-29T03:57:19.362Z,-1.80
2023-01-29T03:58:19.372Z,-1.80
2023-01-29T03:59:19.363Z,-1.78
2023-01-29T04:00:19.497Z,-1.77
2023-01-29T04:01:19.457Z,-1.77
2023-01-29T04:02:19.310Z,-1.78
2023-01-29T04:03:19.308Z,-1.80
2023-01-29T04:04:19.358Z,-1.77
2023-01-29T04:05:19.305Z,-1.77
2023-01-29T04:06:19.272Z,-1.78
2023-01-29T04:07:19.256Z,-1.77
2023-01-29T04:08:19.239Z,-1.77
2023-01-29T04:09:19.241Z,-1.77
2023-01-29T04:10:19.263Z,-1.80
2023-01-29T04:11:19.215Z,-1.85
2023-01-29T04:12:19.200Z,-1.85
2023-01-29T04:13:19.210Z,-1.85
2023-01-29T04:14:19.185Z,-1.86
2023-01-29T04:15:19.199Z,-1.83
2023-01-29T04:16:19.260Z,-1.83
2023-01-29T04:17:19.155Z,-1.85
2023-01-29T04:18:19.148Z,-1.82
2023-01-29T04:19:19.140Z,-1.83
2023-01-29T04:20:19.438Z,-1.82
2023-01-29T04:21:19.121Z,-1.82
2023-01-29T04:22:19.097Z,-1.83
2023-01-29T04:23:19.098Z,-1.83
2023-01-29T04:24:19.134Z,-1.85
2023-01-29T04:25:19.087Z,-1.85
2023-01-29T04:26:19.058Z,-1.85
2023-01-29T04:27:19.051Z,-1.83
2023-01-29T04:28:19.043Z,-1.83
2023-01-29T04:29:19.029Z,-1.80
2023-01-29T04:30:19.107Z,-1.82
2023-01-29T04:31:19.116Z,-1.80
2023-01-29T04:32:19.010Z,-1.78
2023-01-29T04:33:18.992Z,-1.77
2023-01-29T04:34:19.009Z,-1.78
2023-01-29T04:35:18.999Z,-1.77
2023-01-29T04:36:18.952Z,-1.75
2023-01-29T04:37:18.941Z,-1.77
2023-01-29T04:38:18.938Z,-1.75
2023-01-29T04:39:18.931Z,-1.74
2023-01-29T04:40:19.235Z,-1.74
2023-01-29T04:41:18.907Z,-1.72
2023-01-29T04:42:18.909Z,-1.71
2023-01-29T04:43:18.890Z,-1.70
2023-01-29T04:44:18.887Z,-1.71
2023-01-29T04:45:18.880Z,-1.71
2023-01-29T04:46:18.870Z,-1.72
2023-01-29T04:47:18.885Z,-1.77
2023-01-29T04:48:18.878Z,-1.75
2023-01-29T04:49:18.824Z,-1.77
2023-01-29T04:50:19.295Z,-1.77
2023-01-29T04:51:18.813Z,-1.75
2023-01-29T04:52:18.806Z,-1.75
2023-01-29T04:53:18.784Z,-1.75
2023-01-29T04:54:18.779Z,-1.77
2023-01-29T04:55:18.783Z,-1.75
2023-01-29T04:56:18.758Z,-1.74
2023-01-29T04:57:18.740Z,-1.72
2023-01-29T04:58:18.739Z,-1.72
2023-01-29T04:59:18.719Z,-1.74
2023-01-29T05:00:19.024Z,-1.75
2023-01-29T05:01:18.718Z,-1.75
2023-01-29T05:02:18.696Z,-1.74
2023-01-29T05:03:18.688Z,-1.75
2023-01-29T05:04:18.672Z,-1.75
2023-01-29T05:05:18.684Z,-1.75
2023-01-29T05:06:18.657Z,-1.75
2023-01-29T05:07:18.639Z,-1.74
2023-01-29T05:08:18.630Z,-1.75
2023-01-29T05:09:18.624Z,-1.75
2023-01-29T05:10:19.159Z,-1.77
2023-01-29T05:11:18.612Z,-1.78
2023-01-29T05:12:18.604Z,-1.77
2023-01-29T05:13:18.572Z,-1.83
2023-01-29T05:14:18.570Z,-1.83
2023-01-29T05:15:18.570Z,-1.82
2023-01-29T05:16:18.621Z,-1.83
2023-01-29T05:17:18.550Z,-1.83
2023-01-29T05:18:18.559Z,-1.83
2023-01-29T05:19:18.520Z,-1.85
2023-01-29T05:20:18.925Z,-1.82
2023-01-29T05:21:18.499Z,-1.83
2023-01-29T05:22:18.486Z,-1.82
2023-01-29T05:23:18.511Z,-1.82
2023-01-29T05:24:18.547Z,-1.82
2023-01-29T05:25:18.479Z,-1.82
2023-01-29T05:26:18.456Z,-1.80
2023-01-29T05:27:18.451Z,-1.82
2023-01-29T05:28:18.444Z,-1.78
2023-01-29T05:29:18.415Z,-1.80
2023-01-29T05:30:18.912Z,-1.78
2023-01-29T05:31:18.496Z,-1.78
2023-01-29T05:32:18.410Z,-1.80
2023-01-29T05:33:18.384Z,-1.80
2023-01-29T05:34:18.374Z,-1.82
2023-01-29T05:35:18.396Z,-1.80
2023-01-29T05:36:18.351Z,-1.85
2023-01-29T05:37:18.340Z,-1.86
2023-01-29T05:38:18.366Z,-1.88
2023-01-29T05:39:18.321Z,-1.88
2023-01-29T05:40:18.582Z,-1.88
2023-01-29T05:41:18.324Z,-1.88
2023-01-29T05:42:18.292Z,-1.88
2023-01-29T05:43:18.275Z,-1.83
2023-01-29T05:44:18.316Z,-1.83
2023-01-29T05:45:18.299Z,-1.82
2023-01-29T05:46:18.291Z,-1.82
2023-01-29T05:47:18.236Z,-1.80
2023-01-29T05:48:18.243Z,-1.80
2023-01-29T05:49:18.219Z,-1.82
2023-01-29T05:50:18.506Z,-1.85
2023-01-29T05:51:18.197Z,-1.88
2023-01-29T05:52:18.189Z,-1.88
2023-01-29T05:53:18.180Z,-1.86
2023-01-29T05:54:18.185Z,-1.89
2023-01-29T05:55:18.174Z,-1.89
2023-01-29T05:56:18.167Z,-1.88
2023-01-29T05:57:18.137Z,-1.89
2023-01-29T05:58:18.128Z,-1.88
2023-01-29T05:59:18.131Z,-1.88
2023-01-29T06:00:18.391Z,-1.86
2023-01-29T06:01:18.120Z,-1.86
2023-01-29T06:02:18.089Z,-1.85
2023-01-29T06:03:18.161Z,-1.82
2023-01-29T06:04:18.070Z,-1.82
2023-01-29T06:05:18.077Z,-1.78
2023-01-29T06:06:18.063Z,-1.78
2023-01-29T06:07:18.043Z,-1.75
2023-01-29T06:08:18.039Z,-1.75
2023-01-29T06:09:18.015Z,-1.74
2023-01-29T06:10:18.647Z,-1.78
2023-01-29T06:11:18.008Z,-1.77
2023-01-29T06:12:17.998Z,-1.77
2023-01-29T06:13:17.979Z,-1.77
2023-01-29T06:14:17.969Z,-1.74
2023-01-29T06:15:17.986Z,-1.72
2023-01-29T06:16:18.038Z,-1.72
2023-01-29T06:17:17.931Z,-1.71
2023-01-29T06:18:17.927Z,-1.71
2023-01-29T06:19:17.911Z,-1.70
2023-01-29T06:20:18.358Z,-1.70
2023-01-29T06:21:19.964Z,-1.70
2023-01-29T06:22:17.892Z,-1.68
2023-01-29T06:23:17.872Z,-1.70
2023-01-29T06:24:17.984Z,-1.67
2023-01-29T06:25:17.869Z,-1.68
2023-01-29T06:26:17.859Z,-1.68
2023-01-29T06:27:17.835Z,-1.71
2023-01-29T06:28:18.782Z,-1.70
2023-01-29T06:29:17.815Z,-1.71
2023-01-29T06:30:18.245Z,-1.68
2023-01-29T06:31:36.704Z,-1.68
2023-01-29T06:32:17.819Z,-1.68
2023-01-29T06:33:17.766Z,-1.65
2023-01-29T06:34:17.762Z,-1.68
2023-01-29T06:35:17.809Z,-1.67
2023-01-29T06:36:17.747Z,-1.64
2023-01-29T06:37:17.726Z,-1.65
2023-01-29T06:38:17.729Z,-1.65
2023-01-29T06:39:17.708Z,-1.65
2023-01-29T06:40:18.066Z,-1.65
2023-01-29T06:41:17.731Z,-1.65
2023-01-29T06:42:17.707Z,-1.65
2023-01-29T06:43:17.701Z,-1.64
2023-01-29T06:44:17.607Z,-1.64
2023-01-29T06:45:17.663Z,-1.62
2023-01-29T06:46:17.662Z,-1.62
2023-01-29T06:47:17.625Z,-1.61
2023-01-29T06:48:17.653Z,-1.62
2023-01-29T06:49:17.610Z,-1.61
2023-01-29T06:50:17.938Z,-1.61
2023-01-29T06:51:17.568Z,-1.62
2023-01-29T06:52:17.525Z,-1.62
2023-01-29T06:53:17.515Z,-1.64
2023-01-29T06:54:17.520Z,-1.62
2023-01-29T06:55:17.503Z,-1.62
2023-01-29T06:56:17.515Z,-1.61
2023-01-29T06:57:17.468Z,-1.62
2023-01-29T06:58:17.463Z,-1.61
2023-01-29T06:59:17.462Z,-1.59
2023-01-29T07:00:17.848Z,-1.61
2023-01-29T07:01:33.368Z,-1.59
2023-01-29T07:02:17.518Z,-1.59
2023-01-29T07:03:17.428Z,-1.59
2023-01-29T07:04:17.417Z,-1.61
2023-01-29T07:05:17.396Z,-1.62
2023-01-29T07:06:17.401Z,-1.64
2023-01-29T07:07:17.373Z,-1.64
2023-01-29T07:08:17.374Z,-1.67
2023-01-29T07:09:17.348Z,-1.65
2023-01-29T07:10:17.727Z,-1.67
2023-01-29T07:11:17.361Z,-1.64
2023-01-29T07:12:17.365Z,-1.65
2023-01-29T07:13:17.337Z,-1.65
2023-01-29T07:14:17.299Z,-1.65
2023-01-29T07:15:17.300Z,-1.62
2023-01-29T07:16:17.315Z,-1.64
2023-01-29T07:17:17.270Z,-1.62
2023-01-29T07:18:17.280Z,-1.61
2023-01-29T07:19:17.256Z,-1.61
2023-01-29T07:20:17.635Z,-1.64
2023-01-29T07:21:17.240Z,-1.64
2023-01-29T07:22:17.220Z,-1.62
2023-01-29T07:23:17.211Z,-1.61
2023-01-29T07:24:17.245Z,-1.59
2023-01-29T07:25:17.188Z,-1.57
2023-01-29T07:26:17.194Z,-1.57
2023-01-29T07:27:17.174Z,-1.56
2023-01-29T07:28:17.160Z,-1.56
2023-01-29T07:29:17.146Z,-1.53
2023-01-29T07:30:17.504Z,-1.53
2023-01-29T07:31:17.337Z,-1.53
2023-01-29T07:32:17.147Z,-1.53
2023-01-29T07:33:17.110Z,-1.53
2023-01-29T07:34:17.097Z,-1.54
2023-01-29T07:35:17.076Z,-1.53
2023-01-29T07:36:17.087Z,-1.54
2023-01-29T07:37:17.064Z,-1.56
2023-01-29T07:38:17.050Z,-1.54
2023-01-29T07:39:17.035Z,-1.56
2023-01-29T07:40:17.286Z,-1.54
2023-01-29T07:41:17.047Z,-1.54
2023-01-29T07:42:17.011Z,-1.51
2023-01-29T07:43:17.007Z,-1.54
2023-01-29T07:44:16.996Z,-1.53
2023-01-29T07:45:16.994Z,-1.51
2023-01-29T07:46:17.089Z,-1.50
2023-01-29T07:47:17.361Z,-1.49
2023-01-29T07:48:16.954Z,-1.47
2023-01-29T07:49:16.947Z,-1.49
2023-01-29T07:50:17.248Z,-1.49
2023-01-29T07:51:16.952Z,-1.49
2023-01-29T07:52:16.916Z,-1.50
2023-01-29T07:53:16.905Z,-1.49
2023-01-29T07:54:16.902Z,-1.46
2023-01-29T07:55:16.882Z,-1.47
2023-01-29T07:56:16.884Z,-1.47
2023-01-29T07:57:16.850Z,-1.47
2023-01-29T07:58:16.845Z,-1.46
2023-01-29T07:59:16.834Z,-1.44
2023-01-29T08:00:17.181Z,-1.49
2023-01-29T08:01:16.941Z,-1.46
2023-01-29T08:02:16.993Z,-1.47
2023-01-29T08:03:16.803Z,-1.46
2023-01-29T08:04:16.804Z,-1.47
2023-01-29T08:05:16.799Z,-1.51
2023-01-29T08:06:16.787Z,-1.54
2023-01-29T08:07:16.759Z,-1.54
2023-01-29T08:08:16.782Z,-1.56
2023-01-29T08:09:16.755Z,-1.54
2023-01-29T08:10:17.126Z,-1.53
2023-01-29T08:11:16.733Z,-1.54
2023-01-29T08:12:16.709Z,-1.56
2023-01-29T08:13:16.692Z,-1.53
2023-01-29T08:14:16.691Z,-1.50
2023-01-29T08:15:16.675Z,-1.51
2023-01-29T08:16:16.764Z,-1.50
2023-01-29T08:17:16.650Z,-1.50
2023-01-29T08:18:16.682Z,-1.53
2023-01-29T08:19:16.628Z,-1.53
2023-01-29T08:20:17.144Z,-1.54
2023-01-29T08:21:16.623Z,-1.56
2023-01-29T08:22:16.613Z,-1.56
2023-01-29T08:23:16.617Z,-1.54
2023-01-29T08:24:16.605Z,-1.54
2023-01-29T08:25:16.577Z,-1.53
2023-01-29T08:26:16.582Z,-1.51
2023-01-29T08:27:16.564Z,-1.51
2023-01-29T08:28:16.540Z,-1.50
2023-01-29T08:29:16.544Z,-1.50
2023-01-29T08:30:17.673Z,-1.50
2023-01-29T08:31:16.535Z,-1.51
2023-01-29T08:32:16.502Z,-1.53
2023-01-29T08:33:19.448Z,-1.53
2023-01-29T08:34:16.508Z,-1.53
2023-01-29T08:35:16.697Z,-1.54
2023-01-29T08:36:16.484Z,-1.54
2023-01-29T08:37:16.454Z,-1.51
2023-01-29T08:38:16.447Z,-1.51
2023-01-29T08:39:16.429Z,-1.53
2023-01-29T08:40:16.685Z,-1.53
2023-01-29T08:41:16.435Z,-1.54
2023-01-29T08:42:16.408Z,-1.53
2023-01-29T08:43:16.390Z,-1.53
2023-01-29T08:44:16.382Z,-1.53
2023-01-29T08:45:16.384Z,-1.51
2023-01-29T08:46:16.418Z,-1.51
2023-01-29T08:47:16.368Z,-1.53
2023-01-29T08:48:16.383Z,-1.50
2023-01-29T08:49:16.326Z,-1.49
2023-01-29T08:50:16.855Z,-1.49
2023-01-29T08:51:16.328Z,-1.47
2023-01-29T08:52:16.303Z,-1.49
2023-01-29T08:53:16.313Z,-1.51
2023-01-29T08:54:16.278Z,-1.53
2023-01-29T08:55:16.578Z,-1.53
2023-01-29T08:56:16.347Z,-1.53
2023-01-29T08:57:16.258Z,-1.51
2023-01-29T08:58:16.234Z,-1.51
2023-01-29T08:59:16.231Z,-1.50
2023-01-29T09:00:16.477Z,-1.50
2023-01-29T09:01:16.333Z,-1.53
2023-01-29T09:02:16.271Z,-1.51
2023-01-29T09:03:16.201Z,-1.53
2023-01-29T09:04:16.191Z,-1.54
2023-01-29T09:05:16.463Z,-1.51
2023-01-29T09:06:16.193Z,-1.50
2023-01-29T09:07:16.159Z,-1.47
2023-01-29T09:08:16.152Z,-1.47
2023-01-29T09:09:16.136Z,-1.44
2023-01-29T09:10:16.112Z,-1.44
2023-01-29T09:11:16.124Z,-1.46
2023-01-29T09:12:16.091Z,-1.44
2023-01-29T09:13:16.099Z,-1.46
2023-01-29T09:14:16.076Z,-1.44
2023-01-29T09:15:16.362Z,-1.43
2023-01-29T09:16:16.160Z,-1.41
2023-01-29T09:17:16.058Z,-1.41
2023-01-29T09:18:16.063Z,-1.41
2023-01-29T09:19:16.041Z,-1.39
2023-01-29T09:20:16.025Z,-1.41
2023-01-29T09:21:16.021Z,-1.36
2023-01-29T09:22:16.020Z,-1.36
2023-01-29T09:23:15.996Z,-1.36
2023-01-29T09:24:15.983Z,-1.36
2023-01-29T09:25:16.305Z,-1.33
2023-01-29T09:26:16.037Z,-1.32
2023-01-29T09:27:15.993Z,-1.32
2023-01-29T09:28:15.953Z,-1.31
2023-01-29T09:29:15.951Z,-1.29
2023-01-29T09:30:15.929Z,-1.29
2023-01-29T09:31:15.969Z,-1.31
2023-01-29T09:32:19.805Z,-1.31
2023-01-29T09:33:15.902Z,-1.26
2023-01-29T09:34:15.869Z,-1.28
2023-01-29T09:35:16.182Z,-1.25
2023-01-29T09:36:15.884Z,-1.23
2023-01-29T09:37:15.871Z,-1.20
2023-01-29T09:38:15.873Z,-1.18
2023-01-29T09:39:15.816Z,-1.18
2023-01-29T09:40:15.805Z,-1.17
2023-01-29T09:41:15.806Z,-1.15
2023-01-29T09:42:15.807Z,-1.13
2023-01-29T09:43:15.777Z,-1.11
2023-01-29T09:44:15.763Z,-1.11
2023-01-29T09:45:16.302Z,-1.10
2023-01-29T09:46:15.846Z,-1.07
2023-01-29T09:47:15.755Z,-1.07
2023-01-29T09:48:15.724Z,-1.05
2023-01-29T09:49:15.723Z,-1.02
2023-01-29T09:50:15.693Z,-0.99
2023-01-29T09:51:15.697Z,-1.00
2023-01-29T09:52:15.714Z,-0.97
2023-01-29T09:53:15.685Z,-0.99
2023-01-29T09:54:15.664Z,-0.97
2023-01-29T09:55:16.028Z,-0.97
2023-01-29T09:56:15.639Z,-1.00
2023-01-29T09:57:15.700Z,-0.99
2023-01-29T09:58:15.625Z,-1.00
2023-01-29T09:59:15.618Z,-1.00
2023-01-29T10:00:15.615Z,-0.99
2023-01-29T10:01:15.728Z,-0.97
2023-01-29T10:02:15.732Z,-0.93
2023-01-29T10:03:15.609Z,-0.96
2023-01-29T10:04:15.597Z,-0.93
2023-01-29T10:05:15.937Z,-0.92
2023-01-29T10:06:15.547Z,-0.90
2023-01-29T10:07:15.554Z,-0.89
2023-01-29T10:08:15.514Z,-0.85
2023-01-29T10:09:15.527Z,-0.83
2023-01-29T10:10:15.519Z,-0.81
2023-01-29T10:11:15.493Z,-0.81
2023-01-29T10:12:15.492Z,-0.80
2023-01-29T10:13:15.469Z,-0.77
2023-01-29T10:14:15.465Z,-0.76
2023-01-29T10:15:15.726Z,-0.76
2023-01-29T10:16:15.435Z,-0.74
2023-01-29T10:17:15.487Z,-0.74
2023-01-29T10:18:15.414Z,-0.74
2023-01-29T10:19:15.413Z,-0.71
2023-01-29T10:20:15.395Z,-0.73
2023-01-29T10:21:15.385Z,-0.73
2023-01-29T10:22:15.437Z,-0.70
2023-01-29T10:23:15.373Z,-0.70
2023-01-29T10:24:15.348Z,-0.68
2023-01-29T10:25:15.963Z,-0.68
2023-01-29T10:26:15.374Z,-0.68
2023-01-29T10:27:15.381Z,-0.67
2023-01-29T10:28:15.312Z,-0.63
2023-01-29T10:29:15.309Z,-0.63
2023-01-29T10:30:15.289Z,-0.65
2023-01-29T10:31:15.412Z,-0.62
2023-01-29T10:32:15.356Z,-0.59
2023-01-29T10:33:15.269Z,-0.58
2023-01-29T10:34:15.258Z,-0.56
2023-01-29T10:35:15.516Z,-0.55
2023-01-29T10:36:15.234Z,-0.56
2023-01-29T10:37:15.261Z,-0.53
2023-01-29T10:38:15.232Z,-0.53
2023-01-29T10:39:15.206Z,-0.53
2023-01-29T10:40:15.228Z,-0.52
2023-01-29T10:41:15.189Z,-0.50
2023-01-29T10:42:15.183Z,-0.50
2023-01-29T10:43:15.171Z,-0.49
2023-01-29T10:44:15.148Z,-0.44
2023-01-29T10:45:15.769Z,-0.42
2023-01-29T10:46:15.126Z,-0.42
2023-01-29T10:47:15.266Z,-0.42
2023-01-29T10:48:15.123Z,-0.41
2023-01-29T10:49:15.103Z,-0.42
2023-01-29T10:50:15.133Z,-0.42
2023-01-29T10:51:15.087Z,-0.41
2023-01-29T10:52:15.087Z,-0.38
2023-01-29T10:53:15.075Z,-0.39
2023-01-29T10:54:15.070Z,-0.39
2023-01-29T10:55:15.401Z,-0.39
2023-01-29T10:56:22.752Z,-0.39
2023-01-29T10:57:15.043Z,-0.39
2023-01-29T10:58:15.009Z,-0.42
2023-01-29T10:59:15.003Z,-0.41
2023-01-29T11:00:14.979Z,-0.39
2023-01-29T11:01:15.014Z,-0.41
2023-01-29T11:02:15.013Z,-0.42
2023-01-29T11:03:26.351Z,-0.39
2023-01-29T11:04:14.943Z,-0.38
2023-01-29T11:05:15.247Z,-0.39
2023-01-29T11:06:14.911Z,-0.34
2023-01-29T11:07:14.969Z,-0.35
2023-01-29T11:08:14.919Z,-0.35
2023-01-29T11:09:14.899Z,-0.32
2023-01-29T11:10:15.157Z,-0.32
2023-01-29T11:11:14.891Z,-0.32
2023-01-29T11:12:14.917Z,-0.31
2023-01-29T11:13:14.851Z,-0.31
2023-01-29T11:14:14.861Z,-0.31
2023-01-29T11:15:14.841Z,-0.31
2023-01-29T11:16:14.817Z,-0.31
2023-01-29T11:17:14.866Z,-0.30
2023-01-29T11:18:14.846Z,-0.27
2023-01-29T11:19:14.824Z,-0.26
2023-01-29T11:20:15.317Z,-0.26
2023-01-29T11:21:14.764Z,-0.26
2023-01-29T11:22:14.801Z,-0.24
2023-01-29T11:23:14.768Z,-0.23
2023-01-29T11:24:14.729Z,-0.26
2023-01-29T11:25:14.729Z,-0.30
2023-01-29T11:26:14.726Z,-0.27
2023-01-29T11:27:14.726Z,-0.26
2023-01-29T11:28:14.696Z,-0.27
2023-01-29T11:29:14.684Z,-0.27
2023-01-29T11:30:15.243Z,-0.27
2023-01-29T11:31:14.831Z,-0.30
2023-01-29T11:32:14.674Z,-0.27
2023-01-29T11:33:14.656Z,-0.26
2023-01-29T11:34:14.660Z,-0.24
2023-01-29T11:35:14.630Z,-0.24
2023-01-29T11:36:14.625Z,-0.21
2023-01-29T11:37:14.628Z,-0.20
2023-01-29T11:38:14.597Z,-0.21
2023-01-29T11:39:14.592Z,-0.19
2023-01-29T11:40:14.896Z,-0.19
2023-01-29T11:41:14.593Z,-0.19
2023-01-29T11:42:15.117Z,-0.17
2023-01-29T11:43:14.541Z,-0.17
2023-01-29T11:44:14.532Z,-0.13
2023-01-29T11:45:14.532Z,-0.17
2023-01-29T11:46:14.534Z,-0.14
2023-01-29T11:47:14.523Z,-0.14
2023-01-29T11:48:14.489Z,-0.14
2023-01-29T11:49:20.754Z,-0.14
2023-01-29T11:50:14.983Z,-0.13
2023-01-29T11:51:14.460Z,-0.12
2023-01-29T11:52:14.482Z,-0.13
2023-01-29T11:53:14.443Z,-0.09
2023-01-29T11:54:14.424Z,-0.09
2023-01-29T11:55:14.432Z,-0.08
2023-01-29T11:56:14.405Z,-0.08
2023-01-29T11:57:14.418Z,-0.09
2023-01-29T11:58:14.381Z,-0.08
2023-01-29T11:59:14.388Z,-0.08
2023-01-29T12:00:14.931Z,-0.08
2023-01-29T12:01:14.362Z,-0.08
2023-01-29T12:02:14.395Z,-0.08
2023-01-29T12:03:14.371Z,-0.03
2023-01-29T12:04:14.388Z,-0.05
2023-01-29T12:05:14.312Z,-0.06
2023-01-29T12:06:14.358Z,-0.05
2023-01-29T12:07:14.306Z,-0.06
2023-01-29T12:08:14.290Z,-0.03
2023-01-29T12:09:16.021Z,-0.03
2023-01-29T12:10:14.514Z,-0.05
2023-01-29T12:11:14.256Z,-0.03
2023-01-29T12:12:14.253Z,-0.02
2023-01-29T12:13:14.228Z,-0.01
2023-01-29T12:14:14.219Z,0.01
2023-01-29T12:15:14.215Z,-0.01
2023-01-29T12:16:14.361Z,-0.01
2023-01-29T12:17:14.209Z,-0.01
2023-01-29T12:18:14.174Z,-0.01
2023-01-29T12:19:14.162Z,-0.01
2023-01-29T12:20:14.204Z,-0.01
2023-01-29T12:21:14.148Z,-0.01
2023-01-29T12:22:14.157Z,-0.01
2023-01-29T12:23:14.127Z,-0.02
2023-01-29T12:24:14.161Z,-0.02
2023-01-29T12:25:14.109Z,-0.03
2023-01-29T12:26:14.150Z,-0.02
2023-01-29T12:27:14.085Z,-0.03
2023-01-29T12:28:14.104Z,-0.02
2023-01-29T12:29:14.068Z,-0.02
2023-01-29T12:30:14.175Z,-0.01
2023-01-29T12:31:14.068Z,-0.01
2023-01-29T12:32:14.032Z,0.01
2023-01-29T12:33:14.042Z,0.01
2023-01-29T12:34:14.011Z,-0.01
2023-01-29T12:35:14.007Z,0.01
2023-01-29T12:36:14.000Z,0.02
2023-01-29T12:37:13.992Z,0.01
2023-01-29T12:38:13.999Z,0.01
2023-01-29T12:39:13.966Z,-0.01
2023-01-29T12:40:13.979Z,-0.01
2023-01-29T12:41:13.950Z,-0.01
2023-01-29T12:42:13.932Z,-0.01
2023-01-29T12:43:13.954Z,0.02
2023-01-29T12:44:13.951Z,0.01
2023-01-29T12:45:13.900Z,0.02
2023-01-29T12:46:13.893Z,0.04
2023-01-29T12:47:16.143Z,0.02
2023-01-29T12:48:13.889Z,0.02
2023-01-29T12:49:13.856Z,0.04
2023-01-29T12:50:13.921Z,0.04
2023-01-29T12:51:13.838Z,0.02
2023-01-29T12:52:13.860Z,0.04
2023-01-29T12:53:13.844Z,0.04